MUHA/HAV METAR and TAF weather

Enter ICAO airport designator
Station Type Date Time Source
MUHA METAR 2020/03/28 13:55 UTC NOAA

MUHA 281355Z 10010KT CAVOK 25/18 Q1017


Station Type Date Time Source
MUHA Decoded METAR 2020/03/28 13:55 UTC NOAA

Aeropuerto Jose Marti, Rancho-Boyeros, Habana, Cuba (MUHA) 22-59N 082-24W 75M
Mar 28, 2020 - 09:55 AM EDT / 2020.03.28 1355 UTC
Wind: from the E (100 degrees) at 12 MPH (10 KT):0
Visibility: greater than 7 mile(s):0
Temperature: 77 F (25 C)
Dew Point: 64 F (18 C)
Relative Humidity: 65%
Pressure (altimeter): 30.03 in. Hg (1017 hPa)
ob: MUHA 281355Z 10010KT CAVOK 25/18 Q1017
cycle: 14

Station Type Date Time Source
MUHA TAF 2020/03/28 12:03 UTC NOAA

TAF MUHA 281100Z 2812/2912 09010KT 9000 FEW030
BECMG 2904/2906 VRB03KT
TEMPO 2909/2912 5000 PRFG

Example: see airport list